PHTO

Hilo International Airport

Hilo, Hawaii, USA
PHTO 171123Z 1712/1812 24006KT P6SM VCSH FEW010 SCT025 BKN060 TEMPO 1712/1716 4SM -SHRA FEW005 BKN020 OVC040 FM172000 06008KT P6SM VCSH FEW015 SCT025 BKN060 FM180500 24005KT P6SM VCSH FEW010 SCT020 BKN060
Issued Valid From Valid To
Aug-17 @ 11:23 UTC
(4 hours ago)
Aug-17 @ 12:00 UTC
(3 hours ago)
Aug-18 @ 12:00 UTC
(in 21 hours)
Aug-17 @ 12:00 to Aug-17 @ 20:00
PHTO 171123Z 1712/1812 24006KT P6SM VCSH FEW010 SCT025 BKN060
Wind Visibility Clouds
240° at 6 knots Greater than 6 miles
  • Few at 1,000' AGL
  • Scattered at 2,500' AGL
  • Broken at 6,000' AGL
Temporary Aug-17 @ 12:00 to Aug-17 @ 16:00
TEMPO 1712/1716 4SM -SHRA FEW005 BKN020 OVC040
Visibility Clouds Conditions
4 miles
  • Few at 500' AGL
  • Broken at 2,000' AGL
  • Overcast at 4,000' AGL
  • Light Rain
From Aug-17 @ 20:00 to Aug-18 @ 05:00
FM172000 06008KT P6SM VCSH FEW015 SCT025 BKN060
Wind Visibility Clouds
60° at 8 knots Greater than 6 miles
  • Few at 1,500' AGL
  • Scattered at 2,500' AGL
  • Broken at 6,000' AGL
From Aug-18 @ 05:00 to Aug-18 @ 12:00
FM180500 24005KT P6SM VCSH FEW010 SCT020 BKN060
Wind Visibility Clouds
240° at 5 knots Greater than 6 miles
  • Few at 1,000' AGL
  • Scattered at 2,000' AGL
  • Broken at 6,000' AGL
PHTO 171123Z 1712/1812 24006KT P6SM VCSH FEW010 SCT025 BKN060 TEMPO 1712/1716 4SM -SHRA FEW005 BKN020 OVC040 FM172000 06008KT P6SM VCSH FEW015 SCT025 BKN060 FM180500 24005KT P6SM VCSH FEW010 SCT020 BKN060
Issued Aug-17 @ 11:23 UTC
(4 hours ago)
Valid From Aug-17 @ 12:00 UTC
(3 hours ago)
Valid To Aug-18 @ 12:00 UTC
(in 21 hours)
Aug-17 @ 12:00 - Aug-17 @ 20:00
Wind Visibility
240° at 6 knots Greater than 6 miles
Clouds
  • Few at 1,000' AGL
  • Scattered at 2,500' AGL
  • Broken at 6,000' AGL
Temporary Aug-17 @ 12:00 - Aug-17 @ 16:00
Clouds
  • Few at 500' AGL
  • Broken at 2,000' AGL
  • Overcast at 4,000' AGL
Conditions
  • Light Rain
From Aug-17 @ 20:00 - Aug-18 @ 05:00
Wind Visibility
60° at 8 knots Greater than 6 miles
Clouds
  • Few at 1,500' AGL
  • Scattered at 2,500' AGL
  • Broken at 6,000' AGL
From Aug-18 @ 05:00 - Aug-18 @ 12:00
Wind Visibility
240° at 5 knots Greater than 6 miles
Clouds
  • Few at 1,000' AGL
  • Scattered at 2,000' AGL
  • Broken at 6,000' AGL